Wetterdaten: aktuell Mittwoch, 18.09.2019 21:40
Datum Zeit Temp. I. Temp. A. Feuchte I. Feuchte A. Luftdruck Regen Wind Richtung Richtung Sonnenschein Zeit Regen ET Solar Taupunkt Windchill Windben Empfang
18.09.2019 21:40 24,9 C 6,0 C 56 % 85 % 1023,7 hPa 0,0 l/m 0,0 km/h W-NW 299 0 min 0 min 0,000 mm 0 W/m 3,7 C 6,0 C 0,0 km/h 100,00 %
18.09.2019 20:40 24,9 C 7,2 C 56 % 82 % 1023,2 hPa 0,0 l/m 0,0 km/h W-NW 299 0 min 0 min 0,000 mm 0 W/m 4,3 C 7,2 C 0,0 km/h 100,00 %
18.09.2019 19:40 25,0 C 9,4 C 56 % 72 % 1022,4 hPa 0,0 l/m 0,0 km/h W-NW 299 0 min 0 min 0,026 mm 0 W/m 4,6 C 9,4 C 0,0 km/h 100,00 %
18.09.2019 18:40 24,9 C 15,1 C 56 % 47 % 1021,4 hPa 0,0 l/m 0,0 km/h W-NW 299 10 min 0 min 0,152 mm 12 W/m 3,9 C 15,1 C 0,0 km/h 100,00 %
18.09.2019 17:40 24,9 C 17,8 C 56 % 33 % 1021,2 hPa 0,0 l/m 2,4 km/h W-SW 258 60 min 0 min 0,254 mm 169 W/m 1,3 C 17,8 C 12,9 km/h 100,00 %
18.09.2019 16:40 24,9 C 18,4 C 56 % 40 % 1021,3 hPa 0,0 l/m 1,9 km/h SW 228 60 min 0 min 0,356 mm 348 W/m 4,6 C 18,4 C 8,0 km/h 100,00 %
18.09.2019 15:40 25,0 C 18,6 C 56 % 38 % 1021,5 hPa 0,0 l/m 6,0 km/h S-SO 163 60 min 0 min 0,381 mm 504 W/m 4,0 C 18,6 C 17,7 km/h 100,00 %
18.09.2019 14:40 25,0 C 18,1 C 56 % 41 % 1021,9 hPa 0,0 l/m 6,5 km/h W-SW 258 60 min 0 min 0,457 mm 490 W/m 4,6 C 18,1 C 32,2 km/h 100,00 %
18.09.2019 13:40 25,0 C 16,9 C 56 % 44 % 1022,4 hPa 0,0 l/m 14,3 km/h SO 145 60 min 0 min 0,406 mm 687 W/m 4,6 C 13,7 C 35,4 km/h 100,00 %
18.09.2019 12:40 25,1 C 16,4 C 56 % 45 % 1022,8 hPa 0,0 l/m 7,9 km/h SO 132 60 min 0 min 0,407 mm 631 W/m 4,4 C 15,6 C 30,6 km/h 100,00 %
18.09.2019 11:40 25,1 C 15,6 C 56 % 47 % 1023,0 hPa 0,0 l/m 6,0 km/h S-SW 195 60 min 0 min 0,330 mm 679 W/m 4,3 C 15,6 C 22,5 km/h 100,00 %
18.09.2019 10:40 25,1 C 14,2 C 56 % 53 % 1023,1 hPa 0,0 l/m 9,0 km/h O-SO 108 60 min 0 min 0,228 mm 592 W/m 4,8 C 12,7 C 35,4 km/h 100,00 %
18.09.2019 09:40 25,2 C 12,8 C 57 % 58 % 1023,1 hPa 0,0 l/m 4,2 km/h W 274 40 min 0 min 0,051 mm 459 W/m 4,7 C 12,8 C 33,8 km/h 100,00 %
18.09.2019 08:40 25,2 C 11,7 C 57 % 64 % 1022,2 hPa 0,0 l/m 4,2 km/h W 269 0 min 0 min 0,026 mm 49 W/m 5,1 C 11,7 C 12,9 km/h 100,00 %
18.09.2019 07:40 25,2 C 11,1 C 57 % 65 % 1021,7 hPa 0,0 l/m 0,4 km/h SW 229 0 min 0 min 0,000 mm 23 W/m 4,8 C 11,1 C 6,4 km/h 100,00 %
18.09.2019 06:40 25,3 C 11,6 C 57 % 66 % 1020,9 hPa 0,0 l/m 1,6 km/h W 270 0 min 0 min 0,025 mm 5 W/m 5,5 C 11,6 C 9,7 km/h 100,00 %
18.09.2019 05:40 25,3 C 11,9 C 57 % 66 % 1020,2 hPa 0,0 l/m 6,0 km/h S-SO 149 0 min 0 min 0,025 mm 0 W/m 5,8 C 11,9 C 24,1 km/h 100,00 %
18.09.2019 04:40 25,3 C 12,9 C 57 % 65 % 1019,3 hPa 0,0 l/m 4,9 km/h W 271 0 min 0 min 0,026 mm 0 W/m 6,5 C 12,9 C 14,5 km/h 100,00 %
18.09.2019 03:40 25,3 C 13,8 C 57 % 69 % 1018,3 hPa 0,0 l/m 5,1 km/h S 174 0 min 0 min 0,025 mm 0 W/m 8,2 C 13,8 C 20,9 km/h 100,00 %
18.09.2019 02:40 25,3 C 14,3 C 57 % 81 % 1017,7 hPa 0,0 l/m 3,6 km/h O 92 0 min 0 min 0,026 mm 0 W/m 11,1 C 14,3 C 14,5 km/h 99,12 %
18.09.2019 01:40 25,4 C 14,7 C 57 % 78 % 1017,2 hPa 0,0 l/m 2,3 km/h S 179 0 min 0 min 0,025 mm 0 W/m 10,9 C 14,7 C 12,9 km/h 100,00 %
18.09.2019 00:40 25,3 C 15,2 C 57 % 74 % 1016,8 hPa 0,0 l/m 3,3 km/h S-SO 155 0 min 0 min 0,000 mm 0 W/m 10,6 C 15,2 C 17,7 km/h 100,00 %
18.09.2019 00:00 25,3 C 15,3 C 58 % 74 % 1016,3 hPa 0,0 l/m 3,8 km/h SO 137 0 min 0 min 0,000 mm 0 W/m 10,7 C 15,3 C 19,3 km/h 99,12 %
_ Min-Zeit 16:25 21:40 10:05 17:20 00:00 - 06:55 - - - - - - 17:55 21:40 18:25 08:50
Minimum _ 24,9 C 6,0 C 56 % 32 % 1016,3 hPa - 0,0 km/h - - - - - - 0,5 C 6,0 C 0,0 km/h 75,00 %
_ Max-Zeit 00:45 16:55 00:00 21:40 21:35 00:00 13:25 - - 09:05 00:00 14:05 13:35 02:00 16:55 01:45 00:10
Maximum _ 25,4 C 19,2 C 58 % 85 % 1023,8 hPa 0,0 l/m 16,5 km/h
O-SO
- - 5 min 0 min 0,457 mm 707 W/m 11,2 C 19,2 C 53,1 km/h
SO
100,00 %
Durchschnitt _ 25,1 C 14,0 C 56 % 59 % 1021,1 hPa #0,0 l/m 4,1 km/h SO - #8:50 h #0 min. #3,226 mm 382 W/m 5,6 C 13,7 C 16,9 km/h 99,71 %